Time;durP1;ratioP1;P1;durP2;ratioP2;P2;SDS_P1;SDS_P2;PMS_P1;PMS_P2;Temp;Humidity;BMP_temperature;BMP_pressure;BME280_temperature;BME280_humidity;BME280_pressure;Samples;Min_cycle;Max_cycle;Signal;HPM_P1;HPM_P2
2023/12/24 00:00:16;;;;;;;10.30;3.10;;;;;;;1.36;84.11;98503.44;130412;1258;107061;-79
2023/12/24 00:03:41;;;;;;;9.40;3.70;;;;;;;1.32;84.29;98503.57;130382;1264;110122;-78
2023/12/24 00:06:46;;;;;;;7.50;3.10;;;;;;;1.26;84.27;98505.67;130468;1259;108667;-79
2023/12/24 00:09:52;;;;;;;10.70;3.20;;;;;;;1.27;84.40;98519.49;130368;1261;107697;-79
2023/12/24 00:12:57;;;;;;;7.60;3.20;;;;;;;1.29;84.40;98525.72;130392;1257;106864;-80
2023/12/24 00:16:04;;;;;;;6.70;3.10;;;;;;;1.29;84.24;98524.00;130525;1264;106272;-78
2023/12/24 00:19:09;;;;;;;9.30;3.90;;;;;;;1.33;84.17;98524.73;130409;1257;106718;-79
2023/12/24 00:22:15;;;;;;;9.10;3.40;;;;;;;1.30;84.20;98536.70;130539;1261;108667;-77
2023/12/24 00:25:20;;;;;;;10.80;4.30;;;;;;;1.27;84.32;98541.34;130430;1257;108436;-78
2023/12/24 00:28:26;;;;;;;7.50;3.30;;;;;;;1.21;84.43;98542.25;130364;1257;108038;-78
2023/12/24 00:31:32;;;;;;;9.50;3.20;;;;;;;1.23;84.66;98546.45;130482;1258;107739;-78
2023/12/24 00:34:38;;;;;;;6.60;3.30;;;;;;;1.27;84.50;98552.91;130392;1258;106763;-79
2023/12/24 00:37:44;;;;;;;9.40;3.20;;;;;;;1.30;84.68;98558.96;130399;1264;108770;-79
2023/12/24 00:40:49;;;;;;;9.00;3.50;;;;;;;1.32;84.52;98564.41;130425;1263;105426;-77
2023/12/24 00:43:55;;;;;;;9.20;3.60;;;;;;;1.31;84.51;98570.77;130403;1257;108388;-78
2023/12/24 00:47:00;;;;;;;8.20;2.90;;;;;;;1.22;84.48;98572.46;130457;1259;108606;-79
2023/12/24 00:50:09;;;;;;;7.70;3.10;;;;;;;1.08;84.54;98577.68;130375;1262;106823;-79
2023/12/24 00:53:14;;;;;;;8.80;3.00;;;;;;;1.04;84.78;98579.80;130517;1258;108651;-78
2023/12/24 00:56:20;;;;;;;8.20;3.00;;;;;;;1.07;84.85;98580.02;130428;1258;108659;-78
2023/12/24 00:59:25;;;;;;;6.00;2.60;;;;;;;1.11;84.45;98588.60;130419;1259;107754;-79
2023/12/24 01:02:31;;;;;;;7.10;3.50;;;;;;;1.08;84.25;98593.09;130480;1273;108354;-78
2023/12/24 01:05:36;;;;;;;6.50;3.50;;;;;;;1.02;84.35;98594.16;130390;1262;108610;-79
2023/12/24 01:08:42;;;;;;;8.10;3.10;;;;;;;0.97;84.29;98601.41;130481;1261;108877;-79
2023/12/24 01:11:48;;;;;;;6.90;3.20;;;;;;;0.86;84.60;98609.05;130393;1264;107788;-79
2023/12/24 01:14:53;;;;;;;8.70;4.00;;;;;;;0.75;84.67;98615.67;130412;1257;107623;-78
2023/12/24 01:17:59;;;;;;;5.70;2.70;;;;;;;0.73;84.76;98610.60;130496;1257;107498;-80
2023/12/24 01:21:05;;;;;;;6.90;2.80;;;;;;;0.72;84.53;98608.06;130420;1257;108477;-79
2023/12/24 01:24:10;;;;;;;6.90;2.90;;;;;;;0.76;84.59;98613.30;130428;1258;108788;-78
2023/12/24 01:27:16;;;;;;;5.80;2.70;;;;;;;0.77;84.58;98613.98;130373;1264;108665;-79
2023/12/24 01:30:23;;;;;;;6.10;2.90;;;;;;;0.77;84.30;98617.64;130400;1258;108522;-78
2023/12/24 01:33:28;;;;;;;6.10;2.80;;;;;;;0.72;84.39;98622.23;130440;1261;107761;-78
2023/12/24 01:36:34;;;;;;;6.40;3.10;;;;;;;0.68;84.35;98632.08;130340;1257;106592;-77
2023/12/24 01:39:40;;;;;;;6.30;3.10;;;;;;;0.63;84.44;98632.69;130397;1263;106750;-77
2023/12/24 01:42:46;;;;;;;10.90;3.60;;;;;;;0.58;84.61;98635.70;130405;1257;106851;-79
2023/12/24 01:45:52;;;;;;;5.80;3.00;;;;;;;0.56;84.68;98634.11;130389;1259;106526;-80
2023/12/24 01:48:59;;;;;;;10.10;3.10;;;;;;;0.59;84.78;98641.92;130491;1258;108802;-78
2023/12/24 01:52:05;;;;;;;7.90;3.10;;;;;;;0.59;84.85;98640.70;130405;1264;108487;-79
2023/12/24 01:55:11;;;;;;;7.20;3.00;;;;;;;0.56;84.71;98643.61;130385;1257;106482;-79
2023/12/24 01:58:18;;;;;;;7.40;3.00;;;;;;;0.54;84.64;98647.57;130429;1262;107874;-79
2023/12/24 02:01:24;;;;;;;7.80;3.10;;;;;;;0.50;84.86;98651.23;130360;1259;108564;-78
2023/12/24 02:04:29;;;;;;;6.30;3.70;;;;;;;0.43;84.77;98656.70;130427;1263;106353;-78
2023/12/24 02:07:37;;;;;;;11.10;4.10;;;;;;;0.37;85.00;98657.93;130292;1263;108865;-78
2023/12/24 02:10:43;;;;;;;8.40;3.40;;;;;;;0.33;84.92;98660.89;130366;1258;108705;-78
2023/12/24 02:13:49;;;;;;;6.30;3.10;;;;;;;0.34;84.95;98660.62;130480;1261;107529;-78
2023/12/24 02:16:59;;;;;;;6.70;2.60;;;;;;;0.36;84.97;98666.07;130550;1264;106281;-78
2023/12/24 02:20:06;;;;;;;7.20;2.80;;;;;;;0.41;84.86;98667.90;130345;1261;108604;-79
2023/12/24 02:23:11;;;;;;;6.20;2.90;;;;;;;0.46;84.70;98666.08;130372;1258;107781;-80
2023/12/24 02:26:25;;;;;;;5.80;2.80;;;;;;;0.46;84.63;98668.40;130423;1261;108576;-78
2023/12/24 02:29:38;;;;;;;5.30;2.90;;;;;;;0.44;84.55;98669.95;130448;1262;108569;-79
2023/12/24 02:32:46;;;;;;;6.70;3.10;;;;;;;0.39;84.62;98674.58;130521;1257;106577;-77
2023/12/24 02:35:52;;;;;;;7.00;3.00;;;;;;;0.32;84.70;98685.64;130362;1261;106390;-78
2023/12/24 02:39:00;;;;;;;9.00;4.10;;;;;;;0.24;84.68;98683.00;130383;1262;106627;-78
2023/12/24 02:42:07;;;;;;;5.90;3.30;;;;;;;0.13;85.02;98687.20;130361;1259;108703;-78
2023/12/24 02:45:14;;;;;;;9.50;3.30;;;;;;;0.07;85.29;98693.64;130405;1257;107124;-79
2023/12/24 02:48:21;;;;;;;6.40;3.20;;;;;;;0.06;85.29;98688.62;130536;1261;108662;-77
2023/12/24 02:51:28;;;;;;;6.10;2.80;;;;;;;0.09;85.18;98691.54;130427;1259;108691;-79
2023/12/24 02:54:33;;;;;;;6.70;3.00;;;;;;;0.14;85.17;98695.88;130372;1258;108701;-79
2023/12/24 02:57:39;;;;;;;8.20;3.30;;;;;;;0.18;85.09;98696.69;130378;1259;107254;-78
2023/12/24 03:00:45;;;;;;;7.20;3.20;;;;;;;0.22;85.23;98702.86;130457;1259;107626;-78
2023/12/24 03:03:50;;;;;;;5.90;3.10;;;;;;;0.19;84.95;98698.60;130387;1264;107125;-79
2023/12/24 03:06:56;;;;;;;9.00;3.00;;;;;;;0.15;85.12;98701.01;130352;1262;107791;-79
2023/12/24 03:10:01;;;;;;;4.80;2.90;;;;;;;0.13;85.07;98694.48;130356;1262;108591;-78
2023/12/24 03:13:07;;;;;;;8.60;3.00;;;;;;;0.08;85.19;98694.41;130385;1262;107674;-79
2023/12/24 03:16:12;;;;;;;8.50;3.70;;;;;;;0.06;85.28;98695.27;130947;1259;106452;-79
2023/12/24 03:19:18;;;;;;;6.70;3.60;;;;;;;0.02;85.58;98696.98;130531;1258;108157;-77
2023/12/24 03:22:23;;;;;;;6.40;3.50;;;;;;;0.02;85.44;98705.23;130355;1261;107739;-77
2023/12/24 03:25:29;;;;;;;4.90;2.50;;;;;;;0.06;85.53;98708.40;130413;1257;107859;-78
2023/12/24 03:28:35;;;;;;;8.00;3.20;;;;;;;0.09;85.77;98709.34;130322;1258;108689;-78
2023/12/24 03:31:40;;;;;;;9.50;3.80;;;;;;;0.16;85.77;98712.42;130456;1260;106657;-78
2023/12/24 03:34:46;;;;;;;6.60;3.10;;;;;;;0.20;85.51;98718.46;130446;1257;108473;-79
2023/12/24 03:37:51;;;;;;;8.40;3.20;;;;;;;0.21;85.35;98723.44;130416;1261;107908;-79
2023/12/24 03:40:57;;;;;;;5.90;2.80;;;;;;;0.21;85.58;98725.02;130438;1258;108454;-78
2023/12/24 03:44:03;;;;;;;5.80;3.10;;;;;;;0.18;85.46;98724.70;130401;1259;108665;-79
2023/12/24 03:47:09;;;;;;;6.50;3.40;;;;;;;0.15;85.54;98725.14;130496;1258;108738;-78
2023/12/24 03:50:15;;;;;;;10.60;4.20;;;;;;;0.12;85.63;98723.98;130410;1262;108387;-78
2023/12/24 03:53:20;;;;;;;8.00;3.70;;;;;;;0.09;85.63;98724.73;130450;1261;107666;-78
2023/12/24 03:56:26;;;;;;;7.10;2.90;;;;;;;0.10;85.89;98732.41;130389;1257;108675;-79
2023/12/24 03:59:31;;;;;;;7.10;2.90;;;;;;;0.15;85.94;98737.50;130390;1258;106371;-78
2023/12/24 04:02:38;;;;;;;8.20;3.30;;;;;;;0.23;86.05;98741.06;130441;1259;107735;-79
2023/12/24 04:05:44;;;;;;;6.50;3.10;;;;;;;0.27;86.06;98740.12;130417;1263;106518;-78
2023/12/24 04:08:49;;;;;;;6.10;3.60;;;;;;;0.29;85.91;98743.08;130404;1259;108623;-78
2023/12/24 04:11:55;;;;;;;6.80;3.20;;;;;;;0.29;85.77;98735.20;130326;1259;107459;-78
2023/12/24 04:15:00;;;;;;;5.90;3.40;;;;;;;0.32;85.88;98732.68;130261;1260;106199;-78
2023/12/24 04:18:06;;;;;;;8.30;3.70;;;;;;;0.33;85.95;98738.58;130270;1264;107875;-78
2023/12/24 04:21:12;;;;;;;7.90;3.30;;;;;;;0.33;85.96;98740.80;130202;1263;106604;-77
2023/12/24 04:24:17;;;;;;;5.00;2.50;;;;;;;0.37;86.04;98742.22;130194;1259;106416;-78
2023/12/24 04:27:23;;;;;;;6.20;2.80;;;;;;;0.44;86.03;98743.99;130169;1264;107786;-78
2023/12/24 04:30:28;;;;;;;6.30;2.90;;;;;;;0.52;85.99;98742.59;130326;1265;106447;-78
2023/12/24 04:33:40;;;;;;;7.60;3.00;;;;;;;0.56;85.86;98745.55;130447;1259;106813;-77
2023/12/24 04:36:46;;;;;;;31.40;16.00;;;;;;;0.61;85.82;98748.13;130176;1259;106383;-78
2023/12/24 04:39:52;;;;;;;134.60;60.00;;;;;;;0.65;85.94;98751.14;130221;1264;108653;-79
2023/12/24 04:42:58;;;;;;;44.20;19.00;;;;;;;0.68;85.97;98753.18;130314;1259;106379;-78
2023/12/24 04:46:04;;;;;;;136.60;63.00;;;;;;;0.65;85.89;98753.96;130400;1264;106618;-78
2023/12/24 04:49:10;;;;;;;74.70;36.70;;;;;;;0.65;85.94;98750.93;130450;1259;108443;-78
2023/12/24 04:52:15;;;;;;;49.70;26.10;;;;;;;0.70;86.14;98755.08;130297;1264;108664;-79
2023/12/24 04:55:21;;;;;;;64.90;34.90;;;;;;;0.78;86.16;98764.09;130358;1259;108745;-78
2023/12/24 04:58:27;;;;;;;14.70;7.60;;;;;;;0.88;86.03;98763.80;130193;1261;109360;-78
2023/12/24 05:01:32;;;;;;;26.00;12.50;;;;;;;0.90;86.05;98761.46;130094;1263;108672;-78
2023/12/24 05:04:38;;;;;;;64.70;28.60;;;;;;;0.97;86.03;98760.75;130231;1259;106718;-77
2023/12/24 05:07:43;;;;;;;23.10;9.00;;;;;;;1.02;85.84;98762.56;130089;1259;107541;-78
2023/12/24 05:10:49;;;;;;;24.70;12.30;;;;;;;1.05;85.58;98769.18;130367;1263;108651;-77
2023/12/24 05:13:54;;;;;;;11.80;6.70;;;;;;;1.03;85.82;98775.98;130330;1263;108518;-77
2023/12/24 05:17:00;;;;;;;9.80;5.80;;;;;;;0.96;85.72;98785.02;130355;1259;108745;-79
2023/12/24 05:20:07;;;;;;;25.90;14.00;;;;;;;0.92;85.87;98781.80;130120;1259;106536;-77
2023/12/24 05:23:12;;;;;;;64.40;31.40;;;;;;;0.88;85.93;98785.27;130121;1264;108440;-78
2023/12/24 05:26:18;;;;;;;106.10;58.40;;;;;;;0.86;86.08;98789.52;130128;1263;108656;-78
2023/12/24 05:29:23;;;;;;;20.70;14.20;;;;;;;0.89;86.13;98791.30;130490;1259;108647;-78
2023/12/24 05:32:29;;;;;;;14.60;9.40;;;;;;;0.96;86.08;98796.30;130317;1260;108685;-80
2023/12/24 05:35:34;;;;;;;17.60;11.90;;;;;;;1.04;86.10;98799.55;130228;1259;108938;-78
2023/12/24 05:38:40;;;;;;;24.50;16.40;;;;;;;1.10;85.94;98793.41;130222;1263;107766;-78
2023/12/24 05:41:46;;;;;;;19.90;12.00;;;;;;;1.15;85.95;98797.74;130333;1263;106394;-78
2023/12/24 05:44:52;;;;;;;23.00;15.60;;;;;;;1.17;85.71;98799.71;130203;1262;108598;-79
2023/12/24 05:47:57;;;;;;;16.00;10.10;;;;;;;1.17;85.86;98795.83;130391;1265;107445;-76
2023/12/24 05:51:03;;;;;;;260.60;124.10;;;;;;;1.16;86.01;98798.66;130294;1259;106257;-79
2023/12/24 05:54:08;;;;;;;368.30;147.50;;;;;;;1.18;85.98;98800.63;130336;1264;107734;-79
2023/12/24 05:57:14;;;;;;;543.40;242.80;;;;;;;1.21;86.02;98801.98;130260;1265;107063;-78
2023/12/24 06:00:20;;;;;;;902.70;437.50;;;;;;;1.26;86.18;98805.59;130235;1260;107663;-79
2023/12/24 06:03:26;;;;;;;742.30;313.00;;;;;;;1.37;86.21;98812.06;130355;1264;106410;-78
2023/12/24 06:06:32;;;;;;;779.10;327.70;;;;;;;1.48;86.28;98812.33;130387;1261;107608;-78
2023/12/24 06:09:37;;;;;;;437.00;151.30;;;;;;;1.58;86.15;98810.56;130358;1261;105702;-78
2023/12/24 06:12:48;;;;;;;245.40;79.50;;;;;;;1.65;85.93;98807.55;130414;1261;107984;-78
2023/12/24 06:15:54;;;;;;;317.70;113.80;;;;;;;1.70;85.91;98812.40;130369;1273;108724;-78
2023/12/24 06:18:59;;;;;;;222.60;91.20;;;;;;;1.72;85.88;98817.05;130486;1259;108053;-78
2023/12/24 06:22:05;;;;;;;205.40;92.20;;;;;;;1.73;85.70;98823.48;130399;1258;108609;-79
2023/12/24 06:25:11;;;;;;;130.60;67.30;;;;;;;1.72;85.71;98822.76;130390;1258;108758;-79
2023/12/24 06:28:17;;;;;;;60.80;33.80;;;;;;;1.72;85.80;98826.91;130431;1260;106373;-78
2023/12/24 06:31:25;;;;;;;29.50;14.50;;;;;;;1.70;85.82;98830.43;130373;1258;107310;-78
2023/12/24 06:34:31;;;;;;;21.60;12.50;;;;;;;1.66;85.94;98826.24;130413;1261;108395;-76
2023/12/24 06:37:37;;;;;;;38.80;25.00;;;;;;;1.66;85.94;98832.16;130297;1261;107624;-78
2023/12/24 06:40:42;;;;;;;84.10;46.10;;;;;;;1.70;86.01;98827.39;130388;1261;107368;-78
2023/12/24 06:43:48;;;;;;;73.70;43.10;;;;;;;1.78;86.03;98829.16;130405;1257;107519;-78
2023/12/24 06:46:53;;;;;;;496.60;198.30;;;;;;;1.86;85.92;98826.23;130473;1261;108621;-78
2023/12/24 06:49:59;;;;;;;669.90;271.90;;;;;;;1.90;85.68;98823.95;130629;1259;106520;-78
2023/12/24 06:53:05;;;;;;;257.30;91.10;;;;;;;1.91;85.82;98818.78;130299;1259;108616;-78
2023/12/24 06:56:11;;;;;;;204.50;98.10;;;;;;;1.92;85.68;98830.77;130384;1262;107382;-78
2023/12/24 06:59:16;;;;;;;161.90;84.70;;;;;;;1.91;85.80;98831.22;130353;1261;108566;-79
2023/12/24 07:02:22;;;;;;;61.80;32.30;;;;;;;1.90;85.74;98829.77;130360;1261;108774;-79
2023/12/24 07:05:28;;;;;;;27.50;16.80;;;;;;;1.87;85.73;98825.64;130379;1262;107734;-78
2023/12/24 07:08:33;;;;;;;34.10;20.00;;;;;;;1.86;85.93;98820.09;130277;1261;107326;-79
2023/12/24 07:11:39;;;;;;;77.10;44.10;;;;;;;1.90;85.88;98818.52;130272;1261;107793;-77
2023/12/24 07:14:44;;;;;;;34.20;20.00;;;;;;;1.96;85.80;98824.11;130264;1262;108472;-79
2023/12/24 07:17:50;;;;;;;20.40;12.70;;;;;;;2.04;85.89;98824.20;130379;1261;107795;-78
2023/12/24 07:20:56;;;;;;;20.10;13.90;;;;;;;2.11;85.77;98823.90;130388;1260;106887;-78
2023/12/24 07:24:01;;;;;;;24.50;16.50;;;;;;;2.16;85.59;98841.20;130413;1261;106643;-80
2023/12/24 07:27:07;;;;;;;15.10;9.20;;;;;;;2.17;85.72;98844.56;130285;1261;108690;-80
2023/12/24 07:30:15;;;;;;;22.80;14.80;;;;;;;2.21;85.75;98837.42;130502;1261;109273;-80
2023/12/24 07:33:20;;;;;;;24.40;12.80;;;;;;;2.24;85.75;98842.28;130518;1259;108860;-79
2023/12/24 07:36:26;;;;;;;14.70;8.20;;;;;;;2.25;85.64;98846.00;130606;1259;109075;-79
2023/12/24 07:39:33;;;;;;;11.20;6.40;;;;;;;2.23;85.57;98852.50;130369;1259;107461;-78
2023/12/24 07:42:39;;;;;;;12.90;6.30;;;;;;;2.23;85.85;98856.66;130470;1260;107721;-78
2023/12/24 07:45:45;;;;;;;10.70;6.40;;;;;;;2.29;85.83;98858.94;130410;1261;106628;-78
2023/12/24 07:48:50;;;;;;;21.50;11.90;;;;;;;2.37;85.78;98858.84;130369;1261;108731;-78
2023/12/24 07:51:56;;;;;;;12.50;7.10;;;;;;;2.39;85.72;98857.94;130618;1262;108682;-78
2023/12/24 07:55:01;;;;;;;14.10;8.10;;;;;;;2.43;85.78;98855.35;130372;1258;109426;-79
2023/12/24 07:58:10;;;;;;;12.40;7.50;;;;;;;2.47;85.58;98853.94;130317;1259;107648;-78
2023/12/24 08:01:17;;;;;;;14.00;7.20;;;;;;;2.51;85.64;98841.99;130440;1260;107670;-78
2023/12/24 08:04:22;;;;;;;13.70;7.60;;;;;;;2.58;85.63;98849.09;130347;1262;107616;-78
2023/12/24 08:07:29;;;;;;;13.10;8.00;;;;;;;2.62;85.51;98842.55;130496;1259;106700;-79
2023/12/24 08:10:37;;;;;;;27.40;21.20;;;;;;;2.64;85.55;98841.49;130348;1262;107774;-79
2023/12/24 08:13:43;;;;;;;131.90;57.30;;;;;;;2.64;85.36;98844.15;130552;1261;107128;-78
2023/12/24 08:16:49;;;;;;;233.10;99.40;;;;;;;2.64;85.46;98842.38;130615;1261;106974;-78
2023/12/24 08:19:55;;;;;;;226.80;99.50;;;;;;;2.71;85.69;98845.81;130409;1269;106484;-86
2023/12/24 08:23:00;;;;;;;278.70;123.60;;;;;;;2.81;85.66;98851.95;130487;1261;108820;-87
2023/12/24 08:26:06;;;;;;;173.30;80.60;;;;;;;2.90;85.20;98848.10;130628;1261;108454;-87
2023/12/24 08:29:12;;;;;;;124.10;63.40;;;;;;;2.97;85.27;98842.02;130435;1262;107689;-87
2023/12/24 08:32:17;;;;;;;77.20;41.90;;;;;;;3.01;85.24;98843.10;130704;1261;106825;-87
2023/12/24 08:35:23;;;;;;;70.80;38.50;;;;;;;3.05;85.14;98848.88;130579;1262;106575;-85
2023/12/24 08:38:28;;;;;;;72.70;41.60;;;;;;;3.08;85.08;98849.17;130515;1261;106488;-86
2023/12/24 08:41:34;;;;;;;54.00;31.00;;;;;;;3.08;84.93;98851.63;130533;1260;107760;-86
2023/12/24 08:44:39;;;;;;;36.80;21.80;;;;;;;3.05;84.85;98852.42;130206;1262;107548;-87
2023/12/24 08:47:45;;;;;;;49.60;31.10;;;;;;;3.05;85.24;98856.58;130315;1262;106385;-88
2023/12/24 08:50:50;;;;;;;40.60;26.20;;;;;;;3.09;85.02;98853.48;130438;1259;108583;-86
2023/12/24 08:53:58;;;;;;;17.90;10.50;;;;;;;3.16;85.24;98859.46;131347;1257;106492;-83
2023/12/24 08:57:06;;;;;;;17.90;12.80;;;;;;;3.24;85.09;98859.48;130525;1262;107527;-85
2023/12/24 09:00:16;;;;;;;16.80;10.40;;;;;;;3.33;84.90;98859.89;130562;1261;108688;-85
2023/12/24 09:03:22;;;;;;;13.20;8.90;;;;;;;3.40;84.85;98854.46;130385;1258;107598;-86
2023/12/24 09:06:29;;;;;;;13.40;8.50;;;;;;;3.44;84.55;98854.77;130626;1261;107086;-85
2023/12/24 09:09:34;;;;;;;16.30;12.00;;;;;;;3.45;84.46;98862.22;130484;1261;107718;-86
2023/12/24 09:12:40;;;;;;;21.20;15.80;;;;;;;3.47;84.57;98858.04;130466;1260;106871;-85
2023/12/24 09:15:45;;;;;;;25.60;19.40;;;;;;;3.49;84.60;98855.77;130575;1261;107608;-87
2023/12/24 09:18:52;;;;;;;16.50;9.10;;;;;;;3.49;84.57;98856.05;130486;1259;105878;-89
2023/12/24 09:22:03;;;;;;;12.20;7.30;;;;;;;3.50;84.49;98856.52;130630;1257;107467;-88
2023/12/24 09:25:11;;;;;;;20.20;11.60;;;;;;;3.48;84.26;98860.02;130350;1264;107349;-83
2023/12/24 09:28:17;;;;;;;610.90;339.10;;;;;;;3.50;84.57;98860.73;130510;1259;108644;-86
2023/12/24 09:31:23;;;;;;;548.10;246.80;;;;;;;3.60;84.44;98852.44;130623;1261;106536;-87
2023/12/24 09:34:28;;;;;;;191.20;67.50;;;;;;;3.70;84.07;98847.27;130691;1261;108752;-86
2023/12/24 09:37:34;;;;;;;265.60;100.10;;;;;;;3.77;84.07;98842.91;130630;1261;107880;-86
2023/12/24 09:40:40;;;;;;;140.20;58.90;;;;;;;3.85;83.87;98837.41;130577;1260;107488;-86
2023/12/24 09:43:45;;;;;;;156.00;64.90;;;;;;;3.86;83.54;98839.41;130527;1261;107029;-87
2023/12/24 09:46:51;;;;;;;258.70;92.90;;;;;;;3.85;83.65;98835.87;130501;1259;107834;-90
2023/12/24 09:49:58;;;;;;;352.40;142.60;;;;;;;3.83;83.66;98829.91;130795;1262;107906;-86
2023/12/24 09:53:07;;;;;;;168.10;71.30;;;;;;;3.81;83.68;98833.46;130624;1259;108631;-87
2023/12/24 09:56:12;;;;;;;404.10;210.40;;;;;;;3.74;83.51;98826.15;130500;1259;107752;-87
2023/12/24 09:59:18;;;;;;;115.70;54.00;;;;;;;3.69;83.29;98818.02;130761;1259;107924;-85
2023/12/24 10:02:23;;;;;;;239.60;107.00;;;;;;;3.69;83.53;98822.27;130708;1261;108675;-87
2023/12/24 10:05:29;;;;;;;332.10;142.50;;;;;;;3.72;83.56;98827.97;130680;1259;106593;-88
2023/12/24 10:08:35;;;;;;;424.20;212.60;;;;;;;3.78;83.56;98822.09;130611;1258;107256;-88
2023/12/24 10:11:40;;;;;;;58.40;32.80;;;;;;;3.86;83.54;98819.74;130614;1258;106682;-86
2023/12/24 10:14:57;;;;;;;34.90;22.70;;;;;;;3.90;83.11;98817.81;130627;1260;108694;-86
2023/12/24 10:21:36;;;;;;;31.40;18.20;;;;;;;4.05;83.28;98820.45;128682;1282;635725;-86
2023/12/24 10:24:42;;;;;;;12.80;7.20;;;;;;;4.10;83.12;98824.83;130825;1261;107596;-86
2023/12/24 10:27:48;;;;;;;16.30;9.50;;;;;;;4.11;82.90;98826.52;130498;1260;106481;-85
2023/12/24 10:31:08;;;;;;;20.30;14.50;;;;;;;4.09;82.78;98822.15;130582;1262;106992;-86
2023/12/24 10:34:19;;;;;;;14.90;9.50;;;;;;;4.05;82.83;98808.42;130553;1259;267569;-86
2023/12/24 10:37:29;;;;;;;12.50;8.00;;;;;;;4.01;82.65;98805.17;130578;1262;107988;-85
2023/12/24 10:40:34;;;;;;;41.10;22.80;;;;;;;3.87;82.04;98805.09;131629;1254;107589;-86
2023/12/24 10:43:40;;;;;;;22.50;14.70;;;;;;;3.73;82.74;98800.06;131604;1253;106427;-86
2023/12/24 10:46:45;;;;;;;27.40;18.70;;;;;;;3.72;82.97;98795.54;131548;1253;107719;-86
2023/12/24 10:49:52;;;;;;;13.40;9.80;;;;;;;3.76;82.84;98789.88;131736;1251;107410;-86
2023/12/24 10:52:58;;;;;;;34.20;18.90;;;;;;;3.78;82.74;98786.60;131723;1247;108660;-86
2023/12/24 10:56:08;;;;;;;11.10;7.00;;;;;;;3.79;82.75;98787.56;131858;1247;107684;-86
2023/12/24 10:59:24;;;;;;;12.00;7.50;;;;;;;3.86;82.87;98785.77;132026;1248;108661;-86
2023/12/24 11:02:30;;;;;;;10.60;6.50;;;;;;;3.97;82.77;98783.50;132024;1246;106353;-85
2023/12/24 11:05:51;;;;;;;14.90;10.10;;;;;;;4.06;82.79;98783.73;131961;1248;107794;-83
2023/12/24 11:08:57;;;;;;;12.30;7.10;;;;;;;4.13;82.75;98783.55;131827;1251;107407;-86
2023/12/24 11:12:03;;;;;;;12.10;7.20;;;;;;;4.19;82.70;98776.09;132298;1247;108506;-86
2023/12/24 11:15:11;;;;;;;11.50;7.50;;;;;;;4.21;82.70;98774.36;132266;1250;107615;-87
2023/12/24 11:18:43;;;;;;;16.10;11.40;;;;;;;4.22;82.73;98774.61;132379;1251;107836;-86
2023/12/24 11:22:12;;;;;;;14.40;9.90;;;;;;;4.19;82.76;98773.52;132087;1249;106148;-85
2023/12/24 11:25:21;;;;;;;29.20;14.70;;;;;;;4.15;82.77;98759.64;132795;1250;108783;-86
2023/12/24 11:28:39;;;;;;;109.20;44.20;;;;;;;4.09;82.77;98755.42;132458;1247;108592;-85
2023/12/24 11:31:45;;;;;;;85.40;38.90;;;;;;;4.07;82.73;98751.91;132170;1258;106337;-85
2023/12/24 11:34:50;;;;;;;64.60;29.30;;;;;;;4.05;82.75;98753.42;131850;1251;107830;-85
2023/12/24 11:37:56;;;;;;;35.30;22.10;;;;;;;4.01;82.86;98747.79;131691;1250;106605;-86
2023/12/24 11:41:08;;;;;;;17.20;10.90;;;;;;;4.03;82.92;98745.70;131935;1248;106244;-86
2023/12/24 11:44:17;;;;;;;17.60;10.40;;;;;;;4.06;82.93;98744.53;131837;1246;108712;-85
2023/12/24 11:47:23;;;;;;;20.10;12.00;;;;;;;4.13;82.89;98745.38;131808;1247;108536;-85
2023/12/24 11:50:30;;;;;;;17.10;12.30;;;;;;;4.21;82.84;98735.83;131907;1250;108844;-85
2023/12/24 11:53:37;;;;;;;16.00;10.60;;;;;;;4.27;82.84;98728.23;131815;1246;110333;-86
2023/12/24 11:56:47;;;;;;;12.30;9.00;;;;;;;4.32;82.78;98718.52;132140;1247;107919;-87
2023/12/24 11:59:54;;;;;;;10.20;6.60;;;;;;;4.38;82.83;98710.23;132391;1250;107558;-85
2023/12/24 12:03:00;;;;;;;13.80;8.20;;;;;;;4.40;82.55;98709.32;131970;1250;107654;-84
2023/12/24 12:06:06;;;;;;;13.10;7.70;;;;;;;4.39;82.64;98710.17;132003;1250;106987;-93
2023/12/24 12:09:14;;;;;;;11.70;6.90;;;;;;;4.31;82.58;98701.70;132541;1250;108150;-91
2023/12/24 12:12:19;;;;;;;11.40;6.30;;;;;;;4.26;82.66;98689.34;131770;1250;107530;-91
2023/12/24 12:15:27;;;;;;;12.70;5.60;;;;;;;4.18;82.36;98685.10;132109;1246;106408;-86
2023/12/24 12:18:32;;;;;;;8.80;5.60;;;;;;;4.09;82.53;98684.16;132040;1247;107041;-88
2023/12/24 12:21:38;;;;;;;10.60;5.90;;;;;;;4.08;82.60;98685.14;132333;1250;107559;-84
2023/12/24 12:24:44;;;;;;;11.90;6.50;;;;;;;4.15;82.66;98685.58;131665;1250;107162;-87
2023/12/24 12:27:52;;;;;;;10.70;6.30;;;;;;;4.18;82.61;98673.85;132032;1251;106227;-88
2023/12/24 12:30:58;;;;;;;12.30;7.00;;;;;;;4.25;82.68;98678.54;132255;1250;106644;-87
2023/12/24 12:34:04;;;;;;;15.90;7.80;;;;;;;4.32;82.55;98676.76;132112;1250;108681;-86
2023/12/24 12:37:09;;;;;;;21.80;12.00;;;;;;;4.33;82.41;98670.75;131970;1250;107506;-86
2023/12/24 12:40:15;;;;;;;17.00;9.40;;;;;;;4.31;82.48;98660.34;132086;1247;108523;-88
2023/12/24 12:43:23;;;;;;;25.40;13.60;;;;;;;4.32;82.56;98658.52;132039;1246;106984;-86
2023/12/24 12:46:29;;;;;;;17.90;9.70;;;;;;;4.27;82.44;98650.88;131783;1247;107903;-86
2023/12/24 12:49:34;;;;;;;47.60;23.50;;;;;;;4.21;82.42;98654.14;131886;1251;107189;-88
2023/12/24 12:52:40;;;;;;;38.40;15.60;;;;;;;4.13;82.40;98652.15;132101;1247;106324;-83
2023/12/24 12:55:46;;;;;;;24.00;11.10;;;;;;;4.02;82.62;98655.45;131699;1251;107647;-88
2023/12/24 12:58:56;;;;;;;10.40;6.10;;;;;;;3.93;82.56;98662.50;131999;1251;106463;-87
2023/12/24 13:02:04;;;;;;;62.30;26.00;;;;;;;3.87;82.70;98655.88;131965;1250;108644;-87
2023/12/24 13:05:25;;;;;;;25.60;13.40;;;;;;;3.84;82.76;98651.75;131831;1246;108482;-85
2023/12/24 13:08:31;;;;;;;19.70;11.10;;;;;;;3.85;82.67;98647.14;131945;1250;108734;-85
2023/12/24 13:11:37;;;;;;;11.70;7.40;;;;;;;3.85;82.64;98637.45;131891;1251;108701;-85
2023/12/24 13:14:53;;;;;;;19.90;11.80;;;;;;;3.83;82.65;98632.19;131555;1246;106547;-84
2023/12/24 13:18:15;;;;;;;18.40;10.50;;;;;;;3.81;82.56;98635.00;131714;1247;106467;-84
2023/12/24 13:21:21;;;;;;;62.80;28.80;;;;;;;3.73;82.71;98629.16;132020;1249;107537;-86
2023/12/24 13:24:26;;;;;;;31.00;14.70;;;;;;;3.68;82.73;98631.84;132236;1247;106372;-84
2023/12/24 13:27:34;;;;;;;21.10;11.50;;;;;;;3.61;82.70;98639.97;131775;1251;108656;-85
2023/12/24 13:30:40;;;;;;;14.60;9.70;;;;;;;3.53;82.67;98640.34;131617;1250;105500;-86
2023/12/24 13:33:45;;;;;;;36.90;18.20;;;;;;;3.47;82.62;98632.80;131703;1251;108635;-84
2023/12/24 13:36:51;;;;;;;68.00;32.10;;;;;;;3.43;82.72;98629.05;131677;1247;106395;-86
2023/12/24 13:39:59;;;;;;;18.70;11.10;;;;;;;3.42;82.99;98624.67;131704;1258;108644;-86
2023/12/24 13:43:06;;;;;;;26.20;16.00;;;;;;;3.44;83.01;98607.09;131746;1247;108432;-85
2023/12/24 13:46:11;;;;;;;57.70;32.20;;;;;;;3.46;82.97;98606.61;131559;1251;107952;-85
2023/12/24 13:49:17;;;;;;;33.00;19.20;;;;;;;3.45;82.88;98603.68;131737;1247;107063;-84
2023/12/24 13:52:25;;;;;;;18.60;10.60;;;;;;;3.41;82.76;98601.59;131601;1250;107592;-84
2023/12/24 13:55:34;;;;;;;27.50;15.60;;;;;;;3.37;82.98;98609.75;131693;1250;108726;-86
2023/12/24 13:58:40;;;;;;;24.80;14.50;;;;;;;3.33;83.04;98605.52;131674;1250;108710;-87
2023/12/24 14:01:46;;;;;;;39.00;22.20;;;;;;;3.28;82.86;98592.19;131820;1247;106500;-86
2023/12/24 14:04:53;;;;;;;25.40;15.40;;;;;;;3.24;82.96;98591.09;131892;1247;106517;-85
2023/12/24 14:07:59;;;;;;;21.10;12.40;;;;;;;3.21;82.94;98576.33;131904;1247;108565;-86
2023/12/24 14:11:05;;;;;;;20.10;12.60;;;;;;;3.14;83.05;98564.95;132011;1247;107801;-88
2023/12/24 14:14:11;;;;;;;16.10;9.90;;;;;;;3.14;83.25;98560.45;132019;1246;107092;-84
2023/12/24 14:17:16;;;;;;;17.20;10.30;;;;;;;3.16;83.32;98560.22;131898;1247;108720;-86